createdAt,value
2019-05-09T00:00:03.962Z,2.02
2019-05-09T00:02:54.014Z,2.33
2019-05-09T00:05:44.089Z,2.22
2019-05-09T00:08:33.494Z,1.90
2019-05-09T00:11:24.420Z,2.25
2019-05-09T00:14:13.547Z,1.77
2019-05-09T00:17:03.680Z,1.85
2019-05-09T00:19:53.831Z,2.17
2019-05-09T00:22:41.085Z,1.62
2019-05-09T00:25:29.162Z,2.08
2019-05-09T00:28:17.251Z,2.30
2019-05-09T00:31:15.653Z,1.80
2019-05-09T00:34:04.954Z,2.58
2019-05-09T00:36:53.954Z,2.50
2019-05-09T00:39:43.411Z,2.72
2019-05-09T00:42:33.298Z,2.02
2019-05-09T00:45:34.091Z,1.80
2019-05-09T00:48:23.764Z,1.92
2019-05-09T00:51:13.911Z,2.27
2019-05-09T00:54:00.975Z,2.65
2019-05-09T00:56:48.725Z,3.10
2019-05-09T00:59:37.027Z,2.98
2019-05-09T01:02:25.225Z,1.90
2019-05-09T01:05:13.879Z,2.08
2019-05-09T01:08:04.240Z,2.42
2019-05-09T01:10:54.294Z,2.15
2019-05-09T01:13:43.447Z,2.27
2019-05-09T01:16:33.531Z,1.60
2019-05-09T01:19:23.127Z,2.40
2019-05-09T01:22:10.173Z,1.67
2019-05-09T01:24:58.361Z,1.87
2019-05-09T01:27:46.727Z,2.05
2019-05-09T01:30:35.152Z,1.55
2019-05-09T01:33:30.754Z,1.37
2019-05-09T01:36:18.318Z,1.77
2019-05-09T01:39:06.204Z,1.92
2019-05-09T01:41:54.144Z,1.82
2019-05-09T01:44:43.460Z,1.67
2019-05-09T01:47:31.431Z,1.70
2019-05-09T01:50:20.083Z,1.32
2019-05-09T01:53:07.854Z,1.47
2019-05-09T01:55:59.447Z,1.65
2019-05-09T01:58:47.678Z,1.62
2019-05-09T02:01:35.658Z,1.82
2019-05-09T02:04:24.388Z,1.92
2019-05-09T02:07:13.291Z,2.15
2019-05-09T02:10:03.449Z,1.90
2019-05-09T02:12:53.643Z,1.50
2019-05-09T02:16:03.378Z,1.82
2019-05-09T02:19:01.441Z,1.98
2019-05-09T02:21:49.614Z,1.98
2019-05-09T02:24:37.410Z,1.80
2019-05-09T02:27:25.508Z,2.15
2019-05-09T02:30:15.567Z,2.05
2019-05-09T02:33:05.082Z,2.33
2019-05-09T02:36:00.783Z,2.40
2019-05-09T02:38:42.444Z,2.17
2019-05-09T02:41:30.432Z,3.17
2019-05-09T02:44:19.638Z,1.75
2019-05-09T02:47:09.864Z,1.75
2019-05-09T02:49:58.962Z,1.72
2019-05-09T02:52:48.706Z,1.82
2019-05-09T02:55:38.866Z,2.60
2019-05-09T02:58:28.584Z,1.77
2019-05-09T03:01:20.579Z,2.15
2019-05-09T03:04:08.562Z,1.92
2019-05-09T03:06:59.705Z,1.92
2019-05-09T03:09:48.085Z,1.90
2019-05-09T03:12:39.683Z,2.20
2019-05-09T03:15:25.317Z,1.82
2019-05-09T03:18:13.430Z,2.37
2019-05-09T03:21:03.272Z,2.20
2019-05-09T03:23:51.139Z,2.00
2019-05-09T03:26:41.471Z,2.52
2019-05-09T03:29:30.804Z,2.80
2019-05-09T03:32:19.616Z,2.85
2019-05-09T03:35:08.432Z,2.50
2019-05-09T03:38:07.832Z,2.02
2019-05-09T03:40:55.075Z,2.10
2019-05-09T03:43:43.145Z,2.40
2019-05-09T03:46:38.155Z,2.58
2019-05-09T03:49:25.324Z,2.02
2019-05-09T03:52:13.590Z,3.02
2019-05-09T03:55:01.683Z,2.83
2019-05-09T03:58:00.825Z,2.52
2019-05-09T04:00:48.492Z,2.75
2019-05-09T04:03:37.842Z,2.40
2019-05-09T04:06:28.213Z,2.45
2019-05-09T04:09:17.884Z,2.85
2019-05-09T04:12:04.917Z,2.27
2019-05-09T04:14:53.073Z,2.62
2019-05-09T04:17:44.463Z,3.25
2019-05-09T04:20:32.610Z,1.42
2019-05-09T04:23:21.050Z,2.27
2019-05-09T04:26:19.672Z,2.20
2019-05-09T04:29:08.150Z,2.10
2019-05-09T04:31:57.518Z,2.40
2019-05-09T04:34:47.318Z,2.45
2019-05-09T04:37:37.909Z,1.62
2019-05-09T04:40:29.267Z,1.92
2019-05-09T04:43:21.054Z,1.60
2019-05-09T04:46:04.787Z,1.30
2019-05-09T04:48:54.036Z,1.85
2019-05-09T04:51:42.860Z,1.57
2019-05-09T04:54:31.472Z,2.10
2019-05-09T04:57:19.518Z,2.40
2019-05-09T05:00:10.100Z,2.17
2019-05-09T05:02:58.505Z,2.10
2019-05-09T05:05:48.210Z,2.25
2019-05-09T05:08:37.535Z,1.90
2019-05-09T05:11:27.932Z,1.95
2019-05-09T05:14:22.742Z,2.12
2019-05-09T05:17:11.599Z,2.20
2019-05-09T05:20:00.780Z,1.92
2019-05-09T05:22:53.935Z,1.50
2019-05-09T05:25:41.687Z,1.87
2019-05-09T05:28:29.697Z,1.67
2019-05-09T05:31:18.147Z,2.08
2019-05-09T05:34:20.321Z,1.90
2019-05-09T05:37:07.990Z,2.12
2019-05-09T05:39:58.355Z,2.02
2019-05-09T05:42:47.723Z,2.05
2019-05-09T05:45:37.826Z,2.20
2019-05-09T05:48:27.958Z,1.82
2019-05-09T05:51:18.323Z,2.17
2019-05-09T05:54:07.759Z,2.47
2019-05-09T05:56:57.883Z,2.40
2019-05-09T05:59:48.202Z,2.37
2019-05-09T06:02:38.486Z,1.77
2019-05-09T06:05:27.785Z,3.15
2019-05-09T06:08:17.464Z,3.22
2019-05-09T06:11:11.680Z,3.42
2019-05-09T06:14:03.972Z,3.20
2019-05-09T06:16:44.949Z,3.40
2019-05-09T06:19:33.130Z,2.80
2019-05-09T06:22:21.547Z,3.52
2019-05-09T06:25:10.266Z,2.92
2019-05-09T06:27:58.694Z,2.80
2019-05-09T06:30:47.686Z,4.70
2019-05-09T06:33:44.898Z,4.83
2019-05-09T06:36:28.295Z,2.90
2019-05-09T06:39:17.703Z,15.28
2019-05-09T06:42:04.892Z,5.90
2019-05-09T06:45:07.748Z,4.70
2019-05-09T06:47:58.295Z,3.77
2019-05-09T06:50:45.246Z,4.83
2019-05-09T06:53:33.391Z,4.00
2019-05-09T06:56:21.569Z,2.67
2019-05-09T06:59:10.006Z,6.60
2019-05-09T07:02:00.249Z,4.35
2019-05-09T07:04:53.114Z,2.77
2019-05-09T07:07:45.240Z,3.35
2019-05-09T07:10:32.673Z,2.90
2019-05-09T07:13:20.974Z,2.87
2019-05-09T07:16:09.242Z,4.72
2019-05-09T07:18:58.016Z,3.22
2019-05-09T07:22:05.663Z,4.17
2019-05-09T07:25:13.511Z,3.20
2019-05-09T07:28:02.040Z,3.08
2019-05-09T07:30:54.348Z,18.00
2019-05-09T07:33:49.550Z,3.77
2019-05-09T07:36:38.374Z,3.17
2019-05-09T07:39:27.653Z,4.45
2019-05-09T07:42:18.023Z,3.05
2019-05-09T07:45:08.669Z,5.50
2019-05-09T07:47:55.573Z,4.55
2019-05-09T07:50:43.355Z,2.22
2019-05-09T07:53:31.163Z,3.87
2019-05-09T07:56:19.651Z,3.47
2019-05-09T07:59:07.764Z,2.60
2019-05-09T08:01:58.125Z,3.60
2019-05-09T08:04:48.921Z,2.92
2019-05-09T08:07:38.142Z,2.08
2019-05-09T08:10:29.409Z,4.83
2019-05-09T08:13:14.967Z,4.35
2019-05-09T08:16:03.540Z,6.03
2019-05-09T08:18:51.427Z,2.25
2019-05-09T08:21:40.133Z,4.78
2019-05-09T08:24:28.270Z,5.75
2019-05-09T08:27:17.465Z,4.28
2019-05-09T08:30:08.535Z,2.37
2019-05-09T08:32:59.509Z,3.90
2019-05-09T08:35:52.113Z,2.75
2019-05-09T08:38:38.517Z,2.98
2019-05-09T08:41:28.751Z,2.60
2019-05-09T08:44:15.250Z,3.52
2019-05-09T08:47:02.727Z,3.20
2019-05-09T08:50:11.007Z,2.60
2019-05-09T08:52:59.512Z,2.27
2019-05-09T08:55:49.109Z,7.60
2019-05-09T08:58:40.434Z,2.67
2019-05-09T09:01:45.853Z,2.95
2019-05-09T09:04:18.995Z,2.42
2019-05-09T09:07:08.668Z,4.37
2019-05-09T09:09:57.826Z,2.58
2019-05-09T09:12:47.775Z,2.40
2019-05-09T09:16:02.379Z,2.85
2019-05-09T09:18:28.262Z,2.35
2019-05-09T09:21:18.344Z,2.50
2019-05-09T09:24:05.422Z,3.10
2019-05-09T09:26:54.225Z,2.92
2019-05-09T09:29:42.675Z,2.33
2019-05-09T09:32:30.652Z,2.47
2019-05-09T09:35:18.776Z,3.02
2019-05-09T09:38:09.356Z,2.40
2019-05-09T09:40:58.108Z,2.22
2019-05-09T09:43:47.659Z,2.58
2019-05-09T09:46:37.462Z,3.08
2019-05-09T09:49:28.971Z,2.83
2019-05-09T09:52:18.757Z,2.60
2019-05-09T09:55:08.785Z,2.83
2019-05-09T09:57:57.747Z,3.05
2019-05-09T10:00:48.659Z,3.10
2019-05-09T10:03:37.416Z,2.60
2019-05-09T10:06:28.423Z,2.98
2019-05-09T10:09:17.504Z,2.30
2019-05-09T10:12:08.845Z,2.27
2019-05-09T10:14:57.976Z,3.00
2019-05-09T10:17:47.753Z,2.85
2019-05-09T10:20:38.509Z,2.37
2019-05-09T10:23:26.733Z,3.08
2019-05-09T10:26:17.822Z,2.70
2019-05-09T10:29:05.274Z,2.47
2019-05-09T10:31:53.576Z,3.50
2019-05-09T10:34:41.901Z,3.02
2019-05-09T10:37:29.900Z,4.25
2019-05-09T10:40:22.371Z,3.80
2019-05-09T10:43:11.459Z,4.17
2019-05-09T10:46:01.152Z,3.65
2019-05-09T10:48:51.269Z,3.95
2019-05-09T10:51:39.327Z,3.27
2019-05-09T10:54:27.829Z,3.72
2019-05-09T10:57:15.923Z,3.20
2019-05-09T11:00:08.742Z,3.37
2019-05-09T11:02:58.389Z,3.33
2019-05-09T11:05:46.313Z,3.10
2019-05-09T11:08:34.949Z,3.37
2019-05-09T11:11:23.351Z,3.77
2019-05-09T11:14:28.724Z,2.80
2019-05-09T11:17:10.896Z,3.10
2019-05-09T11:19:51.053Z,3.40
2019-05-09T11:22:39.804Z,3.33
2019-05-09T11:25:28.374Z,2.67
2019-05-09T11:28:17.926Z,2.95
2019-05-09T11:31:08.144Z,2.62
2019-05-09T11:33:57.894Z,2.67
2019-05-09T11:36:45.409Z,2.95
2019-05-09T11:39:38.908Z,3.27
2019-05-09T11:42:23.303Z,3.00
2019-05-09T11:45:11.595Z,5.83
2019-05-09T11:47:59.954Z,3.42
2019-05-09T11:50:48.006Z,2.72
2019-05-09T11:53:36.111Z,2.67
2019-05-09T11:56:24.309Z,2.85
2019-05-09T11:59:12.422Z,2.25
2019-05-09T12:02:01.001Z,2.60
2019-05-09T12:04:48.885Z,2.62
2019-05-09T12:07:37.916Z,2.12
2019-05-09T12:10:28.544Z,2.67
2019-05-09T12:13:18.478Z,2.80
2019-05-09T12:16:05.317Z,2.20
2019-05-09T12:18:53.409Z,2.33
2019-05-09T12:21:47.636Z,2.45
2019-05-09T12:24:30.770Z,2.80
2019-05-09T12:27:19.086Z,2.42
2019-05-09T12:30:09.291Z,2.72
2019-05-09T12:32:58.837Z,3.30
2019-05-09T12:35:50.398Z,2.25
2019-05-09T12:38:38.977Z,2.42
2019-05-09T12:41:31.686Z,2.70
2019-05-09T12:44:18.246Z,2.83
2019-05-09T12:47:06.094Z,3.60
2019-05-09T12:49:54.817Z,3.62
2019-05-09T12:52:43.114Z,2.98
2019-05-09T12:55:31.561Z,2.55
2019-05-09T12:58:29.338Z,2.47
2019-05-09T13:01:18.787Z,2.33
2019-05-09T13:04:09.727Z,2.15
2019-05-09T13:06:58.670Z,3.10
2019-05-09T13:09:52.226Z,2.25
2019-05-09T13:12:38.831Z,3.08
2019-05-09T13:15:30.995Z,2.65
2019-05-09T13:18:24.637Z,3.45
2019-05-09T13:21:08.644Z,3.08
2019-05-09T13:23:58.814Z,2.90
2019-05-09T13:26:48.766Z,2.47
2019-05-09T13:29:38.865Z,2.20
2019-05-09T13:32:28.030Z,2.62
2019-05-09T13:35:19.537Z,3.20
2019-05-09T13:38:08.672Z,2.90
2019-05-09T13:40:58.386Z,2.70
2019-05-09T13:43:51.817Z,3.33
2019-05-09T13:46:35.072Z,2.90
2019-05-09T13:49:22.989Z,3.27
2019-05-09T13:52:11.104Z,3.35
2019-05-09T13:54:59.469Z,2.90
2019-05-09T13:57:48.528Z,2.92
2019-05-09T14:00:39.428Z,3.05
2019-05-09T14:03:28.100Z,2.83
2019-05-09T14:06:15.793Z,2.45
2019-05-09T14:09:10.295Z,2.65
2019-05-09T14:11:58.906Z,3.08
2019-05-09T14:14:46.686Z,2.85
2019-05-09T14:17:48.391Z,3.35
2019-05-09T14:20:24.532Z,2.60
2019-05-09T14:23:12.292Z,2.55
2019-05-09T14:26:00.675Z,3.30
2019-05-09T14:28:49.372Z,3.40
2019-05-09T14:31:38.866Z,3.00
2019-05-09T14:34:29.849Z,3.65
2019-05-09T14:37:18.065Z,4.75
2019-05-09T14:40:10.062Z,3.42
2019-05-09T14:42:57.777Z,5.22
2019-05-09T14:45:48.365Z,5.70
2019-05-09T14:48:37.047Z,5.80
2019-05-09T14:51:28.254Z,6.05
2019-05-09T14:54:15.904Z,6.33
2019-05-09T14:57:03.652Z,6.80
2019-05-09T14:59:52.237Z,5.83
2019-05-09T15:02:40.184Z,6.37
2019-05-09T15:05:28.061Z,6.28
2019-05-09T15:08:18.077Z,6.75
2019-05-09T15:11:08.652Z,6.58
2019-05-09T15:13:55.706Z,4.97
2019-05-09T15:16:43.699Z,4.95
2019-05-09T15:19:31.602Z,4.37
2019-05-09T15:22:19.871Z,5.95
2019-05-09T15:25:09.072Z,6.15
2019-05-09T15:27:58.070Z,6.28
2019-05-09T15:30:48.746Z,6.30
2019-05-09T15:33:37.453Z,6.22
2019-05-09T15:36:24.810Z,6.10
2019-05-09T15:39:12.961Z,6.33
2019-05-09T15:42:00.858Z,6.12
2019-05-09T15:44:49.107Z,6.62
2019-05-09T15:47:38.139Z,6.62
2019-05-09T15:50:27.829Z,5.05
2019-05-09T15:53:15.832Z,4.28
2019-05-09T15:56:04.215Z,4.50
2019-05-09T15:58:52.676Z,4.10
2019-05-09T16:01:40.609Z,3.55
2019-05-09T16:04:28.338Z,3.60
2019-05-09T16:07:18.365Z,4.37
2019-05-09T16:10:08.611Z,4.30
2019-05-09T16:12:56.737Z,4.00
2019-05-09T16:15:45.054Z,4.50
2019-05-09T16:18:33.887Z,4.53
2019-05-09T16:21:22.539Z,4.35
2019-05-09T16:24:10.189Z,8.50
2019-05-09T16:26:58.187Z,5.08
2019-05-09T16:29:48.430Z,4.08
2019-05-09T16:32:37.498Z,4.45
2019-05-09T16:35:24.767Z,4.65
2019-05-09T16:38:12.965Z,4.15
2019-05-09T16:41:03.139Z,4.00
2019-05-09T16:43:51.319Z,4.10
2019-05-09T16:46:41.211Z,4.75
2019-05-09T16:49:29.554Z,4.80
2019-05-09T16:52:18.779Z,4.92
2019-05-09T16:55:09.280Z,5.50
2019-05-09T16:57:58.984Z,3.98
2019-05-09T17:00:51.684Z,4.65
2019-05-09T17:03:40.257Z,5.05
2019-05-09T17:06:28.066Z,4.65
2019-05-09T17:09:18.099Z,4.33
2019-05-09T17:12:08.363Z,4.62
2019-05-09T17:14:59.392Z,4.97
2019-05-09T17:17:45.183Z,6.22
2019-05-09T17:20:51.202Z,5.03
2019-05-09T17:23:47.632Z,6.12
2019-05-09T17:26:40.459Z,7.20
2019-05-09T17:29:28.250Z,7.87
2019-05-09T17:32:18.273Z,13.45
2019-05-09T17:35:07.968Z,7.65
2019-05-09T17:37:56.752Z,9.95
2019-05-09T17:40:44.935Z,20.60
2019-05-09T17:43:33.487Z,7.83
2019-05-09T17:46:24.414Z,9.55
2019-05-09T17:49:11.612Z,7.12
2019-05-09T17:51:59.926Z,7.42
2019-05-09T17:54:48.680Z,5.62
2019-05-09T17:57:38.839Z,5.80
2019-05-09T18:00:28.055Z,6.45
2019-05-09T18:03:18.640Z,6.00
2019-05-09T18:06:08.280Z,5.97
2019-05-09T18:08:57.658Z,5.55
2019-05-09T18:11:48.253Z,6.78
2019-05-09T18:14:38.287Z,6.08
2019-05-09T18:17:27.569Z,5.67
2019-05-09T18:20:17.689Z,5.80
2019-05-09T18:23:17.901Z,5.37
2019-05-09T18:26:07.998Z,6.45
2019-05-09T18:28:59.413Z,6.47
2019-05-09T18:31:48.279Z,5.97
2019-05-09T18:34:37.968Z,4.75
2019-05-09T18:37:27.796Z,5.80
2019-05-09T18:40:18.965Z,5.60
2019-05-09T18:43:07.685Z,5.70
2019-05-09T18:45:57.720Z,5.30
2019-05-09T18:48:45.354Z,4.85
2019-05-09T18:51:33.830Z,4.70
2019-05-09T18:54:22.049Z,7.30
2019-05-09T18:57:12.413Z,9.33
2019-05-09T19:00:00.452Z,6.92
2019-05-09T19:02:48.664Z,8.43
2019-05-09T19:05:38.100Z,7.65
2019-05-09T19:08:26.655Z,6.95
2019-05-09T19:11:14.860Z,6.08
2019-05-09T19:14:06.139Z,7.70
2019-05-09T19:17:11.284Z,8.20
2019-05-09T19:20:06.758Z,5.83
2019-05-09T19:22:54.963Z,8.88
2019-05-09T19:25:43.648Z,7.28
2019-05-09T19:28:31.762Z,6.10
2019-05-09T19:31:19.890Z,5.47
2019-05-09T19:34:08.684Z,4.90
2019-05-09T19:36:56.434Z,4.53
2019-05-09T19:39:44.813Z,4.95
2019-05-09T19:42:32.374Z,5.30
2019-05-09T19:45:20.684Z,5.45
2019-05-09T19:48:08.828Z,5.12
2019-05-09T19:50:57.133Z,4.78
2019-05-09T19:53:45.432Z,5.05
2019-05-09T19:56:33.993Z,6.10
2019-05-09T19:59:22.533Z,5.83
2019-05-09T20:02:10.681Z,5.78
2019-05-09T20:04:58.525Z,7.60
2019-05-09T20:07:46.830Z,6.22
2019-05-09T20:10:52.579Z,7.47
2019-05-09T20:13:58.034Z,6.92
2019-05-09T20:16:57.032Z,7.03
2019-05-09T20:19:45.560Z,6.75
2019-05-09T20:22:33.893Z,9.18
2019-05-09T20:25:22.164Z,8.48
2019-05-09T20:28:10.555Z,9.45
2019-05-09T20:30:59.027Z,10.28
2019-05-09T20:33:47.221Z,11.33
2019-05-09T20:36:35.565Z,10.58
2019-05-09T20:39:24.452Z,10.03
2019-05-09T20:42:12.923Z,8.28
2019-05-09T20:45:00.856Z,8.58
2019-05-09T20:47:48.906Z,8.70
2019-05-09T20:50:36.810Z,8.65
2019-05-09T20:53:24.547Z,7.75
2019-05-09T20:56:12.681Z,7.97
2019-05-09T20:59:01.583Z,8.05
2019-05-09T21:01:50.441Z,6.92
2019-05-09T21:04:38.585Z,7.78
2019-05-09T21:07:27.691Z,7.10
2019-05-09T21:10:15.947Z,7.05
2019-05-09T21:13:04.064Z,7.65
2019-05-09T21:15:52.491Z,8.38
2019-05-09T21:18:40.709Z,8.48
2019-05-09T21:21:28.727Z,9.60
2019-05-09T21:24:16.923Z,9.30
2019-05-09T21:27:04.991Z,8.23
2019-05-09T21:29:53.163Z,7.17
2019-05-09T21:32:41.364Z,10.95
2019-05-09T21:35:29.127Z,7.33
2019-05-09T21:38:17.536Z,5.47
2019-05-09T21:41:05.440Z,5.80
2019-05-09T21:43:53.176Z,7.58
2019-05-09T21:46:41.484Z,8.15
2019-05-09T21:49:30.103Z,8.63
2019-05-09T21:52:18.896Z,9.10
2019-05-09T21:55:07.451Z,7.75
2019-05-09T21:57:55.313Z,8.08
2019-05-09T22:00:46.373Z,6.90
2019-05-09T22:03:34.276Z,8.48
2019-05-09T22:06:22.950Z,8.85
2019-05-09T22:09:10.792Z,9.30
2019-05-09T22:11:59.954Z,9.85
2019-05-09T22:14:47.464Z,7.87
2019-05-09T22:17:39.835Z,10.28
2019-05-09T22:20:28.709Z,10.23
2019-05-09T22:23:16.918Z,9.75
2019-05-09T22:26:05.438Z,11.78
2019-05-09T22:28:53.882Z,11.50
2019-05-09T22:31:42.126Z,11.83
2019-05-09T22:34:30.275Z,11.63
2019-05-09T22:37:18.398Z,12.33
2019-05-09T22:40:07.837Z,12.65
2019-05-09T22:42:56.595Z,12.60
2019-05-09T22:45:45.240Z,11.03
2019-05-09T22:48:33.636Z,10.75
2019-05-09T22:51:21.291Z,10.45
2019-05-09T22:54:12.556Z,10.68
2019-05-09T22:56:58.983Z,8.60
2019-05-09T22:59:47.395Z,8.60
2019-05-09T23:02:35.376Z,9.40
2019-05-09T23:05:23.130Z,10.38
2019-05-09T23:08:11.352Z,7.92
2019-05-09T23:10:59.740Z,7.75
2019-05-09T23:13:53.577Z,8.05
2019-05-09T23:16:41.720Z,7.22
2019-05-09T23:19:29.460Z,7.58
2019-05-09T23:22:18.222Z,6.78
2019-05-09T23:25:07.486Z,8.10
2019-05-09T23:27:55.555Z,7.75
2019-05-09T23:30:43.839Z,8.35
2019-05-09T23:33:34.025Z,6.50
2019-05-09T23:36:21.990Z,7.15
2019-05-09T23:39:11.726Z,6.53
2019-05-09T23:42:00.336Z,6.80
2019-05-09T23:44:48.505Z,5.60
2019-05-09T23:47:36.747Z,5.90
2019-05-09T23:50:25.307Z,6.60
2019-05-09T23:53:13.797Z,6.45
2019-05-09T23:56:20.062Z,6.95
2019-05-09T23:59:26.825Z,6.25
